createdAt,value
2019-02-24T00:01:38.533Z,45.60
2019-02-24T00:04:07.217Z,45.60
2019-02-24T00:06:35.902Z,45.50
2019-02-24T00:09:05.202Z,45.30
2019-02-24T00:11:33.993Z,45.30
2019-02-24T00:14:02.880Z,45.20
2019-02-24T00:16:31.772Z,45.10
2019-02-24T00:19:00.458Z,45.00
2019-02-24T00:21:29.349Z,45.10
2019-02-24T00:23:58.033Z,45.20
2019-02-24T00:26:26.709Z,45.00
2019-02-24T00:28:55.391Z,45.10
2019-02-24T00:31:24.199Z,45.10
2019-02-24T00:33:52.860Z,45.00
2019-02-24T00:36:21.444Z,45.00
2019-02-24T00:38:50.025Z,45.00
2019-02-24T00:41:18.507Z,44.70
2019-02-24T00:43:47.086Z,44.40
2019-02-24T00:46:15.772Z,44.40
2019-02-24T00:48:44.361Z,44.20
2019-02-24T00:51:13.146Z,44.20
2019-02-24T00:53:41.830Z,44.00
2019-02-24T00:56:10.510Z,43.90
2019-02-24T00:58:39.196Z,43.60
2019-02-24T01:01:07.879Z,43.50
2019-02-24T01:03:36.665Z,43.40
2019-02-24T01:06:05.350Z,43.30
2019-02-24T01:08:34.035Z,43.50
2019-02-24T01:11:02.617Z,43.20
2019-02-24T01:13:31.303Z,43.20
2019-02-24T01:16:00.198Z,43.20
2019-02-24T01:18:28.881Z,42.90
2019-02-24T01:20:57.457Z,42.80
2019-02-24T01:23:26.141Z,42.90
2019-02-24T01:25:54.930Z,42.70
2019-02-24T01:28:25.505Z,42.40
2019-02-24T01:30:54.040Z,42.30
2019-02-24T01:33:22.829Z,42.50
2019-02-24T01:35:51.515Z,42.30
2019-02-24T01:38:20.155Z,42.10
2019-02-24T01:40:48.985Z,42.30
2019-02-24T01:43:17.569Z,42.20
2019-02-24T01:45:46.254Z,42.10
2019-02-24T01:48:15.040Z,42.10
2019-02-24T01:50:43.661Z,42.10
2019-02-24T01:53:12.311Z,41.90
2019-02-24T01:55:40.984Z,41.80
2019-02-24T01:58:09.771Z,41.70
2019-02-24T02:00:38.355Z,41.90
2019-02-24T02:03:06.938Z,41.90
2019-02-24T02:05:35.622Z,41.80
2019-02-24T02:08:04.312Z,41.70
2019-02-24T02:10:32.995Z,41.60
2019-02-24T02:13:01.581Z,41.70
2019-02-24T02:15:30.361Z,41.40
2019-02-24T02:17:58.943Z,41.50
2019-02-24T02:20:27.626Z,41.50
2019-02-24T02:22:56.207Z,41.30
2019-02-24T02:25:24.891Z,41.20
2019-02-24T02:27:53.578Z,41.30
2019-02-24T02:30:23.709Z,41.40
2019-02-24T02:32:52.276Z,41.50
2019-02-24T02:35:20.963Z,41.20
2019-02-24T02:37:49.647Z,41.20
2019-02-24T02:40:18.331Z,41.10
2019-02-24T02:42:47.120Z,40.90
2019-02-24T02:45:15.701Z,41.00
2019-02-24T02:47:44.491Z,40.90
2019-02-24T02:50:13.276Z,41.00
2019-02-24T02:52:41.857Z,40.80
2019-02-24T02:55:10.554Z,40.90
2019-02-24T02:57:39.230Z,40.80
2019-02-24T03:00:13.957Z,40.80
2019-02-24T03:02:42.648Z,40.80
2019-02-24T03:05:11.428Z,40.60
2019-02-24T03:07:41.861Z,40.40
2019-02-24T03:10:10.550Z,40.40
2019-02-24T03:12:39.534Z,40.60
2019-02-24T03:15:08.232Z,40.50
2019-02-24T03:17:37.003Z,40.70
2019-02-24T03:20:05.900Z,40.80
2019-02-24T03:22:34.588Z,40.50
2019-02-24T03:25:03.366Z,40.60
2019-02-24T03:27:32.154Z,40.20
2019-02-24T03:30:00.883Z,40.10
2019-02-24T03:32:29.523Z,40.30
2019-02-24T03:34:58.195Z,40.00
2019-02-24T03:37:26.779Z,40.30
2019-02-24T03:39:55.463Z,40.30
2019-02-24T03:42:24.235Z,40.00
2019-02-24T03:44:55.905Z,39.90
2019-02-24T03:47:24.587Z,39.90
2019-02-24T03:49:53.475Z,40.00
2019-02-24T03:52:22.161Z,39.80
2019-02-24T03:54:50.845Z,40.00
2019-02-24T03:57:19.533Z,40.20
2019-02-24T03:59:48.323Z,40.10
2019-02-24T04:02:17.007Z,40.30
2019-02-24T04:04:45.790Z,40.30
2019-02-24T04:07:14.476Z,40.00
2019-02-24T04:09:43.020Z,40.00
2019-02-24T04:12:11.628Z,40.00
2019-02-24T04:14:40.329Z,39.80
2019-02-24T04:17:09.017Z,39.70
2019-02-24T04:19:37.794Z,39.60
2019-02-24T04:22:06.388Z,39.80
2019-02-24T04:24:34.957Z,39.60
2019-02-24T04:27:03.531Z,39.60
2019-02-24T04:29:32.122Z,39.60
2019-02-24T04:32:00.702Z,40.40
2019-02-24T04:34:29.389Z,39.70
2019-02-24T04:36:58.177Z,39.70
2019-02-24T04:39:26.762Z,39.70
2019-02-24T04:41:55.447Z,39.50
2019-02-24T04:44:24.009Z,39.20
2019-02-24T04:46:52.607Z,39.30
2019-02-24T04:49:21.187Z,39.10
2019-02-24T04:51:49.769Z,39.30
2019-02-24T04:54:18.350Z,38.90
2019-02-24T04:56:47.036Z,39.00
2019-02-24T04:59:15.536Z,39.00
2019-02-24T05:01:44.204Z,39.00
2019-02-24T05:04:12.890Z,39.40
2019-02-24T05:06:41.568Z,39.10
2019-02-24T05:09:10.153Z,38.80
2019-02-24T05:11:38.837Z,38.70
2019-02-24T05:14:07.622Z,39.00
2019-02-24T05:16:36.307Z,39.00
2019-02-24T05:19:04.890Z,38.80
2019-02-24T05:21:33.573Z,38.80
2019-02-24T05:24:02.263Z,38.80
2019-02-24T05:26:30.830Z,38.90
2019-02-24T05:28:59.529Z,38.60
2019-02-24T05:31:28.313Z,38.60
2019-02-24T05:33:56.799Z,38.60
2019-02-24T05:36:25.584Z,38.60
2019-02-24T05:38:54.266Z,38.60
2019-02-24T05:41:22.852Z,38.70
2019-02-24T05:43:51.536Z,38.60
2019-02-24T05:46:20.220Z,38.40
2019-02-24T05:48:48.908Z,38.50
2019-02-24T05:51:17.591Z,38.80
2019-02-24T05:53:46.541Z,38.40
2019-02-24T05:56:15.481Z,38.40
2019-02-24T05:58:44.265Z,38.50
2019-02-24T06:01:13.247Z,38.60
2019-02-24T06:03:41.829Z,38.40
2019-02-24T06:06:10.619Z,39.20
2019-02-24T06:08:39.527Z,39.90
2019-02-24T06:11:08.192Z,40.10
2019-02-24T06:13:36.773Z,40.50
2019-02-24T06:16:05.469Z,40.70
2019-02-24T06:18:34.150Z,40.60
2019-02-24T06:21:02.833Z,40.70
2019-02-24T06:23:31.520Z,40.70
2019-02-24T06:26:00.303Z,41.00
2019-02-24T06:28:28.978Z,40.90
2019-02-24T06:30:57.587Z,40.90
2019-02-24T06:33:26.248Z,41.30
2019-02-24T06:35:54.932Z,41.20
2019-02-24T06:38:23.619Z,41.20
2019-02-24T06:40:52.202Z,41.00
2019-02-24T06:43:20.878Z,41.40
2019-02-24T06:45:49.564Z,41.70
2019-02-24T06:48:18.148Z,42.10
2019-02-24T06:50:54.409Z,43.30
2019-02-24T06:53:22.991Z,43.10
2019-02-24T06:55:52.887Z,42.90
2019-02-24T06:58:21.591Z,43.00
2019-02-24T07:00:50.263Z,42.60
2019-02-24T07:03:20.602Z,42.60
2019-02-24T07:05:50.000Z,42.50
2019-02-24T07:08:18.789Z,42.60
2019-02-24T07:10:47.475Z,42.70
2019-02-24T07:13:16.166Z,42.80
2019-02-24T07:15:44.836Z,42.80
2019-02-24T07:18:13.407Z,43.10
2019-02-24T07:20:42.000Z,43.10
2019-02-24T07:23:10.589Z,43.10
2019-02-24T07:25:39.265Z,43.10
2019-02-24T07:28:07.953Z,43.20
2019-02-24T07:30:36.637Z,43.30
2019-02-24T07:33:05.321Z,43.50
2019-02-24T07:35:34.008Z,43.60
2019-02-24T07:38:02.795Z,43.60
2019-02-24T07:40:31.583Z,43.80
2019-02-24T07:43:00.262Z,44.00
2019-02-24T07:45:29.059Z,43.70
2019-02-24T07:47:58.451Z,43.60
2019-02-24T07:50:27.138Z,43.20
2019-02-24T07:52:55.821Z,43.10
2019-02-24T07:55:24.406Z,42.30
2019-02-24T07:57:53.194Z,41.90
2019-02-24T08:00:21.761Z,41.90
2019-02-24T08:02:50.361Z,41.80
2019-02-24T08:05:20.678Z,41.30
2019-02-24T08:07:50.781Z,41.20
2019-02-24T08:10:19.583Z,40.90
2019-02-24T08:12:48.371Z,40.80
2019-02-24T08:15:16.940Z,40.70
2019-02-24T08:17:45.638Z,40.80
2019-02-24T08:20:14.225Z,41.10
2019-02-24T08:22:42.801Z,42.50
2019-02-24T08:25:11.384Z,41.30
2019-02-24T08:27:40.083Z,40.30
2019-02-24T08:30:11.421Z,39.80
2019-02-24T08:32:40.107Z,39.50
2019-02-24T08:35:09.018Z,39.30
2019-02-24T08:37:37.791Z,39.40
2019-02-24T08:40:08.412Z,39.80
2019-02-24T08:42:36.980Z,40.10
2019-02-24T08:45:08.748Z,40.20
2019-02-24T08:47:37.376Z,40.30
2019-02-24T08:50:08.797Z,40.30
2019-02-24T08:52:37.433Z,40.50
2019-02-24T08:55:07.629Z,40.50
2019-02-24T08:57:39.236Z,40.40
2019-02-24T09:00:13.861Z,41.00
2019-02-24T09:02:42.659Z,40.30
2019-02-24T09:05:11.348Z,40.40
2019-02-24T09:07:40.143Z,39.70
2019-02-24T09:10:09.527Z,39.30
2019-02-24T09:12:38.212Z,39.30
2019-02-24T09:15:11.819Z,39.80
2019-02-24T09:17:40.589Z,39.30
2019-02-24T09:20:11.195Z,38.50
2019-02-24T09:22:39.903Z,38.40
2019-02-24T09:25:08.997Z,38.40
2019-02-24T09:27:37.579Z,38.70
2019-02-24T09:30:13.422Z,38.00
2019-02-24T09:32:42.104Z,37.40
2019-02-24T09:35:10.696Z,37.50
2019-02-24T09:37:39.381Z,37.80
2019-02-24T09:40:10.411Z,37.70
2019-02-24T09:42:39.114Z,37.40
2019-02-24T09:45:10.491Z,37.30
2019-02-24T09:47:46.391Z,37.50
2019-02-24T09:50:10.244Z,36.60
2019-02-24T09:52:38.868Z,36.40
2019-02-24T09:55:08.821Z,36.00
2019-02-24T09:57:37.460Z,36.60
2019-02-24T10:00:09.318Z,36.50
2019-02-24T10:02:38.209Z,36.50
2019-02-24T10:05:07.391Z,36.60
2019-02-24T10:07:35.988Z,36.60
2019-02-24T10:10:07.457Z,36.10
2019-02-24T10:12:36.124Z,35.60
2019-02-24T10:15:06.956Z,35.40
2019-02-24T10:17:35.640Z,35.50
2019-02-24T10:20:04.327Z,34.00
2019-02-24T10:22:33.318Z,33.90
2019-02-24T10:25:02.208Z,34.80
2019-02-24T10:27:30.999Z,35.10
2019-02-24T10:29:59.680Z,35.20
2019-02-24T10:32:28.259Z,34.90
2019-02-24T10:34:57.046Z,34.50
2019-02-24T10:37:25.833Z,33.90
2019-02-24T10:39:54.520Z,33.80
2019-02-24T10:42:23.102Z,34.00
2019-02-24T10:44:51.890Z,33.70
2019-02-24T10:47:20.471Z,34.20
2019-02-24T10:49:49.257Z,34.10
2019-02-24T10:52:17.944Z,33.50
2019-02-24T10:54:46.629Z,33.20
2019-02-24T10:57:15.315Z,33.70
2019-02-24T10:59:44.055Z,32.80
2019-02-24T11:02:12.686Z,32.90
2019-02-24T11:04:41.369Z,33.20
2019-02-24T11:07:10.253Z,32.50
2019-02-24T11:09:39.055Z,32.70
2019-02-24T11:12:08.899Z,33.90
2019-02-24T11:14:38.047Z,33.30
2019-02-24T11:17:06.985Z,33.00
2019-02-24T11:19:35.846Z,31.80
2019-02-24T11:22:04.413Z,32.40
2019-02-24T11:24:38.022Z,32.30
2019-02-24T11:27:06.702Z,32.80
2019-02-24T11:29:35.589Z,32.50
2019-02-24T11:32:04.269Z,32.00
2019-02-24T11:34:32.959Z,31.60
2019-02-24T11:37:01.556Z,30.80
2019-02-24T11:39:30.332Z,31.50
2019-02-24T11:41:58.920Z,30.60
2019-02-24T11:44:27.589Z,27.90
2019-02-24T11:46:56.287Z,30.00
2019-02-24T11:49:24.962Z,30.40
2019-02-24T11:51:53.541Z,30.20
2019-02-24T11:54:22.330Z,29.30
2019-02-24T11:56:51.113Z,29.70
2019-02-24T11:59:19.700Z,28.30
2019-02-24T12:01:48.389Z,28.10
2019-02-24T12:04:17.507Z,29.40
2019-02-24T12:06:46.995Z,29.60
2019-02-24T12:09:15.875Z,28.70
2019-02-24T12:11:44.660Z,29.40
2019-02-24T12:14:13.235Z,29.00
2019-02-24T12:16:41.803Z,28.50
2019-02-24T12:19:10.390Z,29.40
2019-02-24T12:21:39.391Z,29.30
2019-02-24T12:24:08.208Z,29.20
2019-02-24T12:26:41.663Z,28.70
2019-02-24T12:29:10.482Z,28.80
2019-02-24T12:31:39.257Z,28.90
2019-02-24T12:34:08.168Z,28.50
2019-02-24T12:36:36.824Z,28.40
2019-02-24T12:39:05.903Z,28.70
2019-02-24T12:41:34.603Z,28.50
2019-02-24T12:44:03.192Z,28.70
2019-02-24T12:46:31.872Z,28.20
2019-02-24T12:49:00.454Z,28.40
2019-02-24T12:51:29.138Z,28.90
2019-02-24T12:53:57.823Z,29.20
2019-02-24T12:56:26.428Z,29.10
2019-02-24T12:58:55.091Z,29.10
2019-02-24T13:01:23.777Z,29.00
2019-02-24T13:03:52.457Z,28.40
2019-02-24T13:06:21.142Z,28.40
2019-02-24T13:08:49.928Z,27.90
2019-02-24T13:11:18.612Z,28.50
2019-02-24T13:13:47.299Z,27.70
2019-02-24T13:16:15.971Z,28.20
2019-02-24T13:18:44.666Z,28.10
2019-02-24T13:21:13.352Z,27.70
2019-02-24T13:23:42.138Z,28.40
2019-02-24T13:26:10.926Z,28.00
2019-02-24T13:28:50.111Z,27.80
2019-02-24T13:31:11.479Z,27.70
2019-02-24T13:33:40.461Z,27.90
2019-02-24T13:36:09.249Z,27.80
2019-02-24T13:38:37.934Z,27.60
2019-02-24T13:41:06.618Z,27.50
2019-02-24T13:43:35.406Z,27.80
2019-02-24T13:46:04.093Z,28.00
2019-02-24T13:48:32.875Z,27.30
2019-02-24T13:51:01.560Z,27.90
2019-02-24T13:53:30.251Z,27.70
2019-02-24T13:55:59.035Z,27.70
2019-02-24T13:58:27.717Z,27.60
2019-02-24T14:00:56.406Z,27.70
2019-02-24T14:03:25.090Z,27.70
2019-02-24T14:05:53.879Z,27.90
2019-02-24T14:08:22.555Z,27.80
2019-02-24T14:10:51.140Z,27.70
2019-02-24T14:13:19.820Z,27.90
2019-02-24T14:15:48.406Z,27.70
2019-02-24T14:18:17.200Z,27.80
2019-02-24T14:20:45.880Z,27.80
2019-02-24T14:23:14.731Z,27.30
2019-02-24T14:25:44.889Z,27.30
2019-02-24T14:28:13.470Z,27.40
2019-02-24T14:30:42.156Z,26.90
2019-02-24T14:33:10.945Z,27.00
2019-02-24T14:35:39.618Z,26.70
2019-02-24T14:38:08.527Z,27.20
2019-02-24T14:40:39.451Z,27.10
2019-02-24T14:43:08.654Z,26.90
2019-02-24T14:45:37.332Z,26.90
2019-02-24T14:48:06.118Z,26.90
2019-02-24T14:50:34.817Z,26.70
2019-02-24T14:53:03.588Z,26.40
2019-02-24T14:55:32.400Z,26.90
2019-02-24T14:58:01.075Z,27.10
2019-02-24T15:00:29.761Z,26.90
2019-02-24T15:02:58.753Z,26.40
2019-02-24T15:05:27.637Z,26.50
2019-02-24T15:07:56.310Z,26.50
2019-02-24T15:10:26.023Z,26.60
2019-02-24T15:12:54.704Z,26.50
2019-02-24T15:15:32.958Z,26.80
2019-02-24T15:17:59.856Z,26.70
2019-02-24T15:20:28.543Z,26.20
2019-02-24T15:22:57.122Z,26.20
2019-02-24T15:25:25.908Z,26.30
2019-02-24T15:27:54.594Z,26.30
2019-02-24T15:30:36.681Z,26.50
2019-02-24T15:33:05.378Z,26.30
2019-02-24T15:35:34.061Z,26.20
2019-02-24T15:38:02.953Z,26.30
2019-02-24T15:40:31.533Z,26.00
2019-02-24T15:43:00.099Z,25.80
2019-02-24T15:45:28.697Z,25.80
2019-02-24T15:47:57.283Z,25.90
2019-02-24T15:50:25.863Z,25.90
2019-02-24T15:52:54.546Z,25.40
2019-02-24T15:55:23.231Z,25.70
2019-02-24T15:57:51.916Z,25.90
2019-02-24T16:00:22.445Z,25.40
2019-02-24T16:02:51.242Z,25.70
2019-02-24T16:05:19.914Z,25.50
2019-02-24T16:07:48.806Z,25.30
2019-02-24T16:10:21.380Z,25.20
2019-02-24T16:12:50.175Z,25.00
2019-02-24T16:15:24.793Z,24.80
2019-02-24T16:17:53.585Z,25.20
2019-02-24T16:20:25.042Z,25.20
2019-02-24T16:22:53.834Z,25.20
2019-02-24T16:25:22.709Z,25.20
2019-02-24T16:27:51.497Z,25.20
2019-02-24T16:30:20.287Z,25.10
2019-02-24T16:32:48.999Z,24.90
2019-02-24T16:35:18.474Z,24.90
2019-02-24T16:37:47.160Z,24.50
2019-02-24T16:40:21.047Z,24.70
2019-02-24T16:42:49.643Z,25.00
2019-02-24T16:45:18.277Z,24.90
2019-02-24T16:47:46.909Z,25.00
2019-02-24T16:50:20.596Z,24.80
2019-02-24T16:52:49.292Z,24.90
2019-02-24T16:55:18.365Z,24.80
2019-02-24T16:57:47.364Z,24.70
2019-02-24T17:00:20.987Z,24.60
2019-02-24T17:02:49.673Z,24.60
2019-02-24T17:05:18.554Z,24.60
2019-02-24T17:07:49.121Z,24.60
2019-02-24T17:10:18.984Z,24.50
2019-02-24T17:12:47.565Z,24.70
2019-02-24T17:15:16.364Z,24.70
2019-02-24T17:17:45.049Z,24.60
2019-02-24T17:20:24.181Z,24.50
2019-02-24T17:22:53.072Z,24.70
2019-02-24T17:25:21.858Z,24.70
2019-02-24T17:27:50.542Z,24.80
2019-02-24T17:30:19.331Z,24.60
2019-02-24T17:32:48.127Z,24.70
2019-02-24T17:35:16.913Z,24.80
2019-02-24T17:37:45.600Z,24.90
2019-02-24T17:40:21.284Z,24.90
2019-02-24T17:42:50.033Z,25.00
2019-02-24T17:45:18.710Z,25.00
2019-02-24T17:47:47.490Z,25.00
2019-02-24T17:50:18.440Z,25.10
2019-02-24T17:52:47.008Z,25.00
2019-02-24T17:55:17.744Z,25.00
2019-02-24T17:57:46.425Z,25.10
2019-02-24T18:00:27.812Z,25.10
2019-02-24T18:02:58.020Z,25.10
2019-02-24T18:05:26.718Z,25.10
2019-02-24T18:07:55.320Z,25.20
2019-02-24T18:10:24.096Z,25.20
2019-02-24T18:12:52.879Z,25.10
2019-02-24T18:15:21.562Z,25.00
2019-02-24T18:17:50.245Z,25.10
2019-02-24T18:20:20.346Z,25.10
2019-02-24T18:22:48.938Z,25.20
2019-02-24T18:25:17.520Z,25.20
2019-02-24T18:27:46.142Z,25.20
2019-02-24T18:30:28.188Z,25.20
2019-02-24T18:32:56.803Z,25.40
2019-02-24T18:35:25.490Z,25.40
2019-02-24T18:37:54.258Z,25.40
2019-02-24T18:40:22.939Z,25.40
2019-02-24T18:42:59.638Z,25.50
2019-02-24T18:45:22.258Z,25.60
2019-02-24T18:47:51.047Z,25.60
2019-02-24T18:50:20.248Z,25.70
2019-02-24T18:52:49.028Z,25.70
2019-02-24T18:55:17.827Z,25.60
2019-02-24T18:57:46.598Z,25.40
2019-02-24T19:00:17.681Z,25.60
2019-02-24T19:02:46.311Z,25.50
2019-02-24T19:05:18.388Z,25.50
2019-02-24T19:07:47.276Z,25.50
2019-02-24T19:10:23.015Z,25.60
2019-02-24T19:12:51.714Z,25.70
2019-02-24T19:15:22.091Z,25.50
2019-02-24T19:17:50.911Z,25.60
2019-02-24T19:20:20.528Z,25.50
2019-02-24T19:22:49.319Z,25.40
2019-02-24T19:25:18.007Z,25.50
2019-02-24T19:27:46.793Z,25.50
2019-02-24T19:30:30.836Z,25.50
2019-02-24T19:32:55.252Z,25.50
2019-02-24T19:35:24.320Z,25.50
2019-02-24T19:37:53.099Z,26.20
2019-02-24T19:40:22.294Z,25.60
2019-02-24T19:42:51.949Z,25.70
2019-02-24T19:45:23.454Z,25.80
2019-02-24T19:47:52.527Z,25.80
2019-02-24T19:50:21.231Z,25.80
2019-02-24T19:52:50.130Z,25.80
2019-02-24T19:55:23.719Z,26.00
2019-02-24T19:57:55.813Z,26.00
2019-02-24T20:00:25.480Z,26.00
2019-02-24T20:02:54.282Z,26.10
2019-02-24T20:05:24.220Z,26.00
2019-02-24T20:07:52.989Z,26.10
2019-02-24T20:10:23.515Z,26.10
2019-02-24T20:12:52.180Z,26.10
2019-02-24T20:15:21.202Z,26.20
2019-02-24T20:17:49.973Z,26.30
2019-02-24T20:20:18.657Z,26.40
2019-02-24T20:22:47.244Z,26.50
2019-02-24T20:25:18.059Z,26.50
2019-02-24T20:27:46.658Z,26.70
2019-02-24T20:30:35.615Z,26.70
2019-02-24T20:33:04.217Z,26.80
2019-02-24T20:35:32.884Z,26.90
2019-02-24T20:38:01.680Z,27.00
2019-02-24T20:40:30.654Z,27.10
2019-02-24T20:42:59.247Z,27.10
2019-02-24T20:45:29.430Z,27.30
2019-02-24T20:47:58.154Z,27.30
2019-02-24T20:50:32.084Z,27.60
2019-02-24T20:53:00.754Z,27.50
2019-02-24T20:55:29.635Z,27.60
2019-02-24T20:57:58.516Z,27.60
2019-02-24T21:00:36.114Z,28.20
2019-02-24T21:03:04.807Z,27.70
2019-02-24T21:05:33.493Z,27.80
2019-02-24T21:08:02.171Z,28.00
2019-02-24T21:10:30.961Z,28.00
2019-02-24T21:12:59.952Z,28.10
2019-02-24T21:15:28.741Z,28.30
2019-02-24T21:17:57.530Z,28.30
2019-02-24T21:20:29.187Z,28.50
2019-02-24T21:22:57.886Z,28.40
2019-02-24T21:25:26.654Z,28.50
2019-02-24T21:27:55.335Z,28.50
2019-02-24T21:30:24.121Z,28.50
2019-02-24T21:32:52.935Z,28.60
2019-02-24T21:35:21.700Z,28.50
2019-02-24T21:37:50.383Z,28.70
2019-02-24T21:40:20.701Z,28.80
2019-02-24T21:42:49.383Z,28.70
2019-02-24T21:45:24.004Z,28.90
2019-02-24T21:47:52.791Z,29.00
2019-02-24T21:50:21.477Z,29.00
2019-02-24T21:52:50.160Z,29.00
2019-02-24T21:55:18.846Z,29.00
2019-02-24T21:57:47.658Z,29.10
2019-02-24T22:00:21.550Z,29.20
2019-02-24T22:02:50.327Z,29.20
2019-02-24T22:05:18.910Z,29.20
2019-02-24T22:07:47.489Z,29.30
2019-02-24T22:10:17.096Z,29.50
2019-02-24T22:12:45.677Z,29.40
2019-02-24T22:15:22.760Z,29.50
2019-02-24T22:17:51.340Z,29.50
2019-02-24T22:20:20.128Z,29.70
2019-02-24T22:22:48.714Z,29.80
2019-02-24T22:25:17.394Z,29.80
2019-02-24T22:27:46.084Z,29.90
2019-02-24T22:30:19.073Z,29.90
2019-02-24T22:32:47.852Z,29.90
2019-02-24T22:35:16.544Z,30.00
2019-02-24T22:37:45.077Z,30.00
2019-02-24T22:40:16.592Z,30.10
2019-02-24T22:42:45.362Z,30.20
2019-02-24T22:45:18.724Z,30.40
2019-02-24T22:47:47.331Z,30.40
2019-02-24T22:50:16.426Z,30.50
2019-02-24T22:52:45.757Z,30.80
2019-02-24T22:55:15.567Z,30.60
2019-02-24T22:57:44.222Z,30.80
2019-02-24T23:00:54.179Z,30.80
2019-02-24T23:03:28.288Z,30.80
2019-02-24T23:05:57.072Z,31.00
2019-02-24T23:08:25.745Z,31.20
2019-02-24T23:10:54.429Z,31.20
2019-02-24T23:13:23.128Z,31.10
2019-02-24T23:15:52.015Z,31.30
2019-02-24T23:18:20.800Z,31.10
2019-02-24T23:20:49.587Z,31.30
2019-02-24T23:23:18.377Z,31.30
2019-02-24T23:25:46.958Z,31.00
2019-02-24T23:28:15.747Z,31.20
2019-02-24T23:30:44.542Z,31.10
2019-02-24T23:33:13.316Z,31.40
2019-02-24T23:35:42.110Z,31.40
2019-02-24T23:38:10.789Z,31.40
2019-02-24T23:40:39.474Z,31.40
2019-02-24T23:43:08.055Z,31.30
2019-02-24T23:45:36.740Z,31.30
2019-02-24T23:48:05.528Z,31.50
2019-02-24T23:50:34.224Z,31.50
2019-02-24T23:53:03.007Z,31.50
2019-02-24T23:55:31.793Z,31.50
2019-02-24T23:58:00.496Z,31.60
